Time;durP1;ratioP1;P1;durP2;ratioP2;P2;SDS_P1;SDS_P2;PMS_P1;PMS_P2;Temp;Humidity;BMP_temperature;BMP_pressure;BME280_temperature;BME280_humidity;BME280_pressure;Samples;Min_cycle;Max_cycle;Signal;HPM_P1;HPM_P2
2022/04/04 00:00:48;;;;;;;6.20;3.10;;;;;;;3.40;52.85;100353.84;117364;1185;23648;-58
2022/04/04 00:03:17;;;;;;;6.40;4.00;;;;;;;3.37;52.96;100354.48;117378;1188;22954;-48
2022/04/04 00:05:47;;;;;;;5.60;3.20;;;;;;;3.33;52.96;100359.98;117316;1180;22635;-58
2022/04/04 00:08:20;;;;;;;4.90;3.30;;;;;;;3.30;52.89;100365.14;117363;1185;24156;-58
2022/04/04 00:10:48;;;;;;;5.30;3.60;;;;;;;3.27;52.94;100369.08;117405;1186;22085;-58
2022/04/04 00:13:37;;;;;;;5.30;3.80;;;;;;;3.25;52.83;100372.51;117283;1188;21840;-57
2022/04/04 00:16:09;;;;;;;6.00;4.50;;;;;;;3.21;52.87;100378.16;117339;1185;21898;-47
2022/04/04 00:18:59;;;;;;;5.20;3.90;;;;;;;3.19;52.85;100384.18;117305;1186;21950;-47
2022/04/04 00:21:30;;;;;;;7.30;4.30;;;;;;;3.16;52.85;100384.66;117239;1186;22163;-47
2022/04/04 00:23:58;;;;;;;7.50;4.50;;;;;;;3.15;52.96;100386.19;117332;1185;21941;-58
2022/04/04 00:26:47;;;;;;;6.30;4.30;;;;;;;3.13;52.98;100386.50;117269;1185;22937;-58
2022/04/04 00:29:16;;;;;;;6.00;4.20;;;;;;;3.10;52.91;100385.41;117399;1185;23550;-58
2022/04/04 00:31:45;;;;;;;5.60;3.80;;;;;;;3.09;53.00;100384.19;117306;1185;23467;-60
2022/04/04 00:34:33;;;;;;;5.10;3.60;;;;;;;3.06;53.01;100389.87;117315;1185;21849;-59
2022/04/04 00:37:03;;;;;;;6.50;4.50;;;;;;;3.05;52.95;100389.49;117344;1185;23443;-58
2022/04/04 00:39:31;;;;;;;6.10;4.50;;;;;;;3.03;53.04;100389.09;117346;1186;24168;-47
2022/04/04 00:42:00;;;;;;;6.30;4.40;;;;;;;3.02;53.00;100393.24;117306;1185;21846;-58
2022/04/04 00:44:29;;;;;;;8.80;5.30;;;;;;;3.01;53.10;100390.80;117332;1185;24184;-47
2022/04/04 00:46:57;;;;;;;6.50;4.70;;;;;;;3.00;52.96;100395.47;117366;1185;23445;-58
2022/04/04 00:49:26;;;;;;;9.00;5.50;;;;;;;3.01;53.08;100403.11;117381;1185;23628;-48
2022/04/04 00:51:55;;;;;;;8.10;5.00;;;;;;;3.01;53.12;100405.71;117294;1186;22918;-48
2022/04/04 00:54:23;;;;;;;8.00;5.10;;;;;;;3.01;53.06;100405.00;117294;1185;21865;-48
2022/04/04 00:56:52;;;;;;;8.50;4.90;;;;;;;3.00;53.10;100411.06;117317;1186;24173;-58
2022/04/04 00:59:21;;;;;;;8.30;4.80;;;;;;;2.99;53.07;100415.38;117286;1186;23549;-58
2022/04/04 01:01:49;;;;;;;7.00;5.00;;;;;;;2.98;53.07;100420.73;117398;1185;23535;-47
2022/04/04 01:04:18;;;;;;;6.70;4.60;;;;;;;2.95;53.10;100417.91;117363;1186;23468;-59
2022/04/04 01:06:48;;;;;;;7.10;4.70;;;;;;;2.93;53.11;100419.25;117365;1185;23441;-58
2022/04/04 01:09:17;;;;;;;5.80;3.80;;;;;;;2.91;53.25;100417.82;117194;1185;23563;-58
2022/04/04 01:12:08;;;;;;;9.10;5.30;;;;;;;2.88;53.05;100420.01;117357;1186;24162;-58
2022/04/04 01:14:45;;;;;;;8.60;5.60;;;;;;;2.85;53.08;100424.47;117337;1186;21890;-59
2022/04/04 01:17:15;;;;;;;8.70;6.20;;;;;;;2.82;53.22;100429.10;117446;1182;21857;-48
2022/04/04 01:19:45;;;;;;;9.20;5.70;;;;;;;2.80;53.06;100432.00;117335;1185;22923;-58
2022/04/04 01:22:14;;;;;;;7.70;5.80;;;;;;;2.78;53.23;100433.69;117373;1186;21848;-59
2022/04/04 01:24:42;;;;;;;9.10;6.00;;;;;;;2.76;53.13;100441.63;117350;1185;21851;-48
2022/04/04 01:27:12;;;;;;;8.90;6.00;;;;;;;2.74;53.11;100438.98;117371;1185;23471;-48
2022/04/04 01:29:41;;;;;;;10.30;6.40;;;;;;;2.72;53.10;100445.70;117459;1185;23551;-47
2022/04/04 01:32:09;;;;;;;9.80;6.60;;;;;;;2.71;53.12;100453.64;117369;1185;23438;-59
2022/04/04 01:34:39;;;;;;;;;;;;;;;2.69;53.13;100455.84;117286;1185;22924;-47
2022/04/04 01:37:08;;;;;;;9.50;5.90;;;;;;;2.67;53.35;100458.24;117353;1185;23444;-48
2022/04/04 01:39:36;;;;;;;8.60;6.20;;;;;;;2.65;53.25;100461.31;117389;1186;23458;-48
2022/04/04 01:42:07;;;;;;;10.50;6.80;;;;;;;2.63;53.11;100466.83;117369;1185;21845;-48
2022/04/04 01:44:36;;;;;;;11.50;6.90;;;;;;;2.62;53.26;100466.27;117364;1185;21963;-59
2022/04/04 01:47:08;;;;;;;9.20;6.90;;;;;;;2.60;53.11;100471.45;117317;1186;21850;-47
2022/04/04 01:49:36;;;;;;;9.70;6.70;;;;;;;2.58;53.20;100471.58;117363;1186;24230;-47
2022/04/04 01:52:05;;;;;;;9.20;6.80;;;;;;;2.56;53.14;100473.26;117327;1186;21998;-58
2022/04/04 01:54:33;;;;;;;10.30;7.10;;;;;;;2.56;53.18;100480.34;117354;1186;21974;-47
2022/04/04 01:57:03;;;;;;;9.50;7.10;;;;;;;2.55;53.14;100482.24;117339;1185;23481;-58
2022/04/04 01:59:32;;;;;;;8.40;6.40;;;;;;;2.56;53.30;100484.67;117305;1185;22796;-47
2022/04/04 02:02:00;;;;;;;9.10;6.50;;;;;;;2.55;53.30;100488.83;117383;1186;21968;-53
2022/04/04 02:04:29;;;;;;;10.80;7.30;;;;;;;2.55;53.27;100487.77;117393;1185;21844;-59
2022/04/04 02:06:59;;;;;;;10.40;6.50;;;;;;;2.52;53.38;100493.96;117408;1184;21921;-58
2022/04/04 02:09:27;;;;;;;9.70;7.40;;;;;;;2.51;53.38;100494.62;117330;1188;21849;-47
2022/04/04 02:11:56;;;;;;;9.50;7.00;;;;;;;2.51;53.45;100501.05;117383;1184;22803;-47
2022/04/04 02:14:24;;;;;;;9.90;7.40;;;;;;;2.49;53.22;100507.23;117406;1186;22574;-47
2022/04/04 02:16:53;;;;;;;10.30;7.30;;;;;;;2.48;53.38;100512.76;117493;1186;21864;-59
2022/04/04 02:19:23;;;;;;;9.70;7.10;;;;;;;2.47;53.38;100513.27;117337;1186;23482;-47
2022/04/04 02:21:52;;;;;;;10.90;7.70;;;;;;;2.47;53.20;100518.60;117362;1185;22282;-47
2022/04/04 02:24:22;;;;;;;10.10;8.00;;;;;;;2.45;53.42;100519.44;117334;1186;24135;-48
2022/04/04 02:26:52;;;;;;;10.50;7.10;;;;;;;2.47;53.31;100522.59;117359;1186;23490;-48
2022/04/04 02:29:21;;;;;;;11.60;8.60;;;;;;;2.45;53.34;100524.29;117349;1185;22647;-47
2022/04/04 02:31:49;;;;;;;10.70;7.50;;;;;;;2.45;53.31;100530.66;117345;1185;23468;-47
2022/04/04 02:34:18;;;;;;;9.70;7.10;;;;;;;2.44;53.39;100530.83;117343;1185;21973;-47
2022/04/04 02:36:46;;;;;;;12.50;8.50;;;;;;;2.45;53.50;100530.51;117472;1185;22924;-59
2022/04/04 02:39:16;;;;;;;11.40;7.90;;;;;;;2.46;53.33;100535.73;117352;1185;23471;-59
2022/04/04 02:41:44;;;;;;;12.70;8.40;;;;;;;2.46;53.38;100537.98;117322;1182;22934;-58
2022/04/04 02:44:12;;;;;;;11.30;8.30;;;;;;;2.46;53.45;100541.61;117413;1180;21846;-47
2022/04/04 02:46:41;;;;;;;15.20;8.90;;;;;;;2.46;53.43;100546.13;117431;1185;23448;-59
2022/04/04 02:49:10;;;;;;;16.80;9.50;;;;;;;2.47;53.41;100548.57;117284;1182;21849;-47
2022/04/04 02:51:39;;;;;;;11.20;8.10;;;;;;;2.47;53.49;100549.77;117360;1184;23550;-48
2022/04/04 02:54:07;;;;;;;15.00;9.10;;;;;;;2.47;53.51;100556.02;117423;1186;21845;-59
2022/04/04 02:56:39;;;;;;;18.30;10.10;;;;;;;2.46;53.47;100552.17;117357;1185;23572;-59
2022/04/04 02:59:08;;;;;;;14.40;9.60;;;;;;;2.45;53.38;100554.77;117299;1186;21845;-59
2022/04/04 03:01:37;;;;;;;13.90;9.50;;;;;;;2.45;53.46;100561.16;117366;1186;21860;-59
2022/04/04 03:04:07;;;;;;;13.20;9.20;;;;;;;2.43;53.42;100563.55;117373;1186;23567;-59
2022/04/04 03:06:36;;;;;;;15.00;9.30;;;;;;;2.41;53.55;100567.14;117344;1186;23630;-48
2022/04/04 03:09:05;;;;;;;16.20;10.30;;;;;;;2.41;53.56;100570.27;117418;1186;23570;-60
2022/04/04 03:11:40;;;;;;;16.50;10.60;;;;;;;2.41;53.40;100575.45;117248;1186;22634;-59
2022/04/04 03:14:10;;;;;;;17.00;10.30;;;;;;;2.40;53.53;100579.41;117387;1185;22925;-48
2022/04/04 03:16:39;;;;;;;15.90;9.80;;;;;;;2.39;53.37;100583.91;117322;1186;22614;-60
2022/04/04 03:19:08;;;;;;;15.70;10.60;;;;;;;2.38;53.52;100587.36;117399;1185;23559;-61
2022/04/04 03:21:38;;;;;;;16.00;9.60;;;;;;;2.37;53.49;100589.40;117340;1186;21921;-48
2022/04/04 03:24:12;;;;;;;18.20;10.50;;;;;;;2.37;53.42;100587.31;118529;1185;22068;-48
2022/04/04 03:26:42;;;;;;;17.60;10.00;;;;;;;2.36;53.61;100588.67;118330;1185;21861;-48
2022/04/04 03:29:11;;;;;;;15.10;9.80;;;;;;;2.35;53.47;100593.48;117360;1186;22177;-48
2022/04/04 03:31:42;;;;;;;13.20;8.60;;;;;;;2.34;53.66;100589.86;117382;1186;22615;-48
2022/04/04 03:34:11;;;;;;;14.80;8.20;;;;;;;2.33;53.53;100592.60;117381;1185;23446;-48
2022/04/04 03:36:40;;;;;;;14.80;8.90;;;;;;;2.31;53.48;100596.86;117375;1185;24232;-48
2022/04/04 03:39:12;;;;;;;12.20;8.50;;;;;;;2.27;53.48;100596.59;117431;1184;24155;-48
2022/04/04 03:41:46;;;;;;;13.50;8.50;;;;;;;2.25;53.65;100600.35;117304;1186;22815;-48
2022/04/04 03:44:14;;;;;;;15.60;9.80;;;;;;;2.26;53.48;100606.26;117327;1188;21931;-59
2022/04/04 03:46:42;;;;;;;14.60;9.70;;;;;;;2.29;53.56;100606.18;117373;1184;22565;-60
2022/04/04 03:49:11;;;;;;;14.50;8.50;;;;;;;2.30;53.63;100607.24;117365;1186;23433;-60
2022/04/04 03:51:40;;;;;;;12.90;8.60;;;;;;;2.31;53.65;100610.54;117431;1186;22001;-48
2022/04/04 03:54:10;;;;;;;16.20;9.60;;;;;;;2.32;53.67;100612.82;117357;1185;24175;-60
2022/04/04 03:56:38;;;;;;;13.10;8.60;;;;;;;2.32;53.57;100614.73;117344;1185;23647;-59
2022/04/04 03:59:07;;;;;;;14.60;9.50;;;;;;;2.32;53.57;100614.55;117339;1186;21847;-59
2022/04/04 04:01:35;;;;;;;15.20;9.70;;;;;;;2.33;53.54;100616.48;117313;1185;23468;-60
2022/04/04 04:04:04;;;;;;;13.50;9.10;;;;;;;2.33;53.65;100614.25;117357;1186;21958;-60
2022/04/04 04:06:33;;;;;;;15.70;9.90;;;;;;;2.33;53.59;100615.98;117401;1184;22461;-47
2022/04/04 04:09:22;;;;;;;13.00;9.20;;;;;;;2.33;53.64;100615.45;117318;1182;21878;-60
2022/04/04 04:11:51;;;;;;;17.20;10.00;;;;;;;2.34;53.55;100620.33;117304;1185;22203;-48
2022/04/04 04:14:20;;;;;;;17.40;10.60;;;;;;;2.36;53.77;100621.92;117359;1184;24220;-48
2022/04/04 04:16:49;;;;;;;15.70;10.00;;;;;;;2.37;53.84;100625.08;117396;1188;22943;-48
2022/04/04 04:22:06;;;;;;;16.70;9.80;;;;;;;2.42;53.83;100635.23;117362;1185;24183;-47
2022/04/04 04:24:35;;;;;;;19.60;10.90;;;;;;;2.45;53.89;100637.72;117332;1184;22923;-48
2022/04/04 04:27:04;;;;;;;16.70;10.70;;;;;;;2.47;53.84;100645.07;117371;1188;21857;-48
2022/04/04 04:29:33;;;;;;;19.60;10.40;;;;;;;2.50;53.76;100645.48;117365;1185;23661;-59
2022/04/04 04:32:02;;;;;;;19.40;11.30;;;;;;;2.53;54.09;100653.70;117357;1185;22852;-48
2022/04/04 04:34:31;;;;;;;15.10;10.20;;;;;;;2.57;53.80;100651.02;117497;1185;22990;-47
2022/04/04 04:36:59;;;;;;;17.60;10.80;;;;;;;2.61;53.99;100653.02;117354;1186;21851;-48
2022/04/04 04:39:27;;;;;;;18.00;10.40;;;;;;;2.65;53.99;100656.59;117397;1186;23543;-49
2022/04/04 04:41:56;;;;;;;13.50;9.10;;;;;;;2.69;53.88;100661.19;117411;1186;23444;-58
2022/04/04 04:44:25;;;;;;;15.50;9.70;;;;;;;2.75;54.02;100665.32;117359;1186;23643;-59
2022/04/04 04:46:55;;;;;;;16.70;10.20;;;;;;;2.81;53.92;100668.41;117319;1186;21863;-60
2022/04/04 04:49:25;;;;;;;14.00;8.80;;;;;;;2.86;54.15;100677.71;117326;1183;21860;-48
2022/04/04 04:51:54;;;;;;;12.90;8.60;;;;;;;2.92;54.11;100679.77;117337;1184;23595;-59
2022/04/04 04:54:25;;;;;;;14.80;9.00;;;;;;;2.99;54.10;100686.86;117382;1185;24226;-59
2022/04/04 04:56:53;;;;;;;14.60;9.60;;;;;;;3.05;54.23;100685.80;117337;1185;22924;-59
2022/04/04 04:59:23;;;;;;;12.10;8.10;;;;;;;3.12;54.28;100690.10;117334;1184;23499;-48
2022/04/04 05:01:54;;;;;;;12.00;8.60;;;;;;;3.20;54.19;100695.15;118239;1184;22826;-60
2022/04/04 05:04:23;;;;;;;13.20;8.20;;;;;;;3.29;54.26;100696.75;118772;1185;24166;-60
2022/04/04 05:06:52;;;;;;;13.20;8.50;;;;;;;3.36;54.19;100700.54;117319;1186;24156;-48
2022/04/04 05:09:22;;;;;;;12.50;7.70;;;;;;;3.42;54.26;100703.11;117332;1186;22997;-49
2022/04/04 05:12:11;;;;;;;12.40;7.60;;;;;;;3.48;54.16;100706.52;117269;1185;21905;-59
2022/04/04 05:14:40;;;;;;;10.70;6.70;;;;;;;3.52;54.12;100706.45;117338;1186;22803;-50
2022/04/04 05:17:09;;;;;;;11.00;7.90;;;;;;;3.62;54.38;100709.94;117357;1186;21914;-48
2022/04/04 05:19:38;;;;;;;9.60;6.80;;;;;;;3.72;54.27;100711.72;119416;1184;22153;-49
2022/04/04 05:22:08;;;;;;;10.20;7.00;;;;;;;3.79;54.46;100717.59;117933;1185;23672;-48
2022/04/04 05:24:37;;;;;;;11.50;7.00;;;;;;;3.85;54.20;100716.34;117222;1186;21871;-59
2022/04/04 05:27:05;;;;;;;12.60;7.20;;;;;;;3.91;54.32;100722.01;117309;1181;21862;-58
2022/04/04 05:29:33;;;;;;;8.80;6.90;;;;;;;3.98;54.31;100721.63;117216;1185;23578;-59
2022/04/04 05:32:02;;;;;;;9.60;6.50;;;;;;;4.00;54.37;100718.19;117280;1185;23549;-48
2022/04/04 05:34:30;;;;;;;11.80;6.80;;;;;;;4.04;54.40;100720.36;117231;1185;21862;-48
2022/04/04 05:37:00;;;;;;;10.60;6.50;;;;;;;4.11;54.49;100718.40;117211;1186;24422;-58
2022/04/04 05:39:29;;;;;;;9.40;6.70;;;;;;;4.21;54.54;100714.25;117249;1186;23500;-49
2022/04/04 05:41:58;;;;;;;9.40;6.50;;;;;;;4.35;54.50;100716.44;117089;1187;23476;-48
2022/04/04 05:44:26;;;;;;;9.30;6.10;;;;;;;4.42;54.43;100721.07;117199;1189;21854;-49
2022/04/04 05:46:56;;;;;;;10.50;6.30;;;;;;;4.47;54.32;100726.20;117210;1186;21840;-49
2022/04/04 05:49:25;;;;;;;9.50;6.10;;;;;;;4.52;54.30;100724.91;117238;1186;23598;-49
2022/04/04 05:51:53;;;;;;;9.60;6.40;;;;;;;4.53;54.28;100724.41;117218;1186;21855;-59
2022/04/04 05:54:31;;;;;;;8.40;5.60;;;;;;;4.62;54.56;100725.42;117110;1186;24401;-49
2022/04/04 05:57:00;;;;;;;9.30;5.90;;;;;;;4.76;54.53;100724.46;117079;1185;23813;-59
2022/04/04 05:59:28;;;;;;;8.80;6.10;;;;;;;4.89;54.53;100724.49;117168;1185;23582;-50
2022/04/04 06:01:57;;;;;;;9.20;5.90;;;;;;;4.97;54.42;100731.40;117207;1185;24242;-59
2022/04/04 06:04:28;;;;;;;7.90;5.70;;;;;;;5.05;54.52;100734.31;117116;1186;23627;-59
2022/04/04 06:06:57;;;;;;;8.20;5.50;;;;;;;5.14;54.56;100736.71;117449;1185;22927;-59
2022/04/04 06:09:26;;;;;;;8.30;5.40;;;;;;;5.20;54.36;100739.77;117200;1186;22616;-48
2022/04/04 06:11:54;;;;;;;8.50;6.00;;;;;;;5.23;54.10;100743.98;117097;1187;23538;-59
2022/04/04 06:14:24;;;;;;;8.70;5.90;;;;;;;5.35;54.55;100742.95;117114;1186;21905;-48
2022/04/04 06:17:13;;;;;;;8.30;5.80;;;;;;;5.47;54.38;100745.05;117125;1185;24287;-59
2022/04/04 06:19:44;;;;;;;17.30;6.40;;;;;;;5.59;54.46;100753.39;118329;1184;23488;-59
2022/04/04 06:22:12;;;;;;;8.80;5.40;;;;;;;5.69;54.55;100754.77;119244;1185;21855;-48
2022/04/04 06:25:00;;;;;;;9.00;6.00;;;;;;;5.81;54.06;100758.56;117129;1186;23688;-58
2022/04/04 06:27:30;;;;;;;9.50;5.50;;;;;;;5.85;54.33;100761.06;117109;1187;23530;-49
2022/04/04 06:29:59;;;;;;;7.10;5.10;;;;;;;5.94;54.60;100759.62;117260;1186;23457;-59
2022/04/04 06:32:45;;;;;;;6.90;5.00;;;;;;;6.06;54.45;100763.79;117179;1186;23522;-48
2022/04/04 06:35:14;;;;;;;9.20;5.40;;;;;;;6.15;54.41;100769.15;117289;1186;23506;-58
2022/04/04 06:37:44;;;;;;;11.10;5.30;;;;;;;6.25;54.41;100769.61;117146;1186;23007;-59
2022/04/04 06:40:13;;;;;;;9.60;6.00;;;;;;;6.39;54.46;100770.11;117136;1186;22006;-58
2022/04/04 06:42:42;;;;;;;7.50;4.90;;;;;;;6.54;54.21;100770.10;117087;1186;23464;-58
2022/04/04 06:45:11;;;;;;;8.00;5.00;;;;;;;6.66;54.46;100769.16;117185;1186;22930;-59
2022/04/04 06:47:40;;;;;;;6.70;4.90;;;;;;;6.77;54.42;100770.16;117122;1186;22850;-49
2022/04/04 06:50:09;;;;;;;9.90;5.10;;;;;;;6.82;54.05;100774.91;117145;1181;23450;-55
2022/04/04 06:52:45;;;;;;;8.80;5.00;;;;;;;6.85;54.16;100775.10;117174;1186;23556;-59
2022/04/04 06:55:38;;;;;;;7.70;4.90;;;;;;;6.86;53.85;100776.50;117246;1186;22076;-59
2022/04/04 06:58:07;;;;;;;7.70;5.20;;;;;;;6.83;53.85;100780.85;117321;1186;22069;-49
2022/04/04 07:00:35;;;;;;;7.10;4.30;;;;;;;6.92;53.80;100788.24;117209;1182;23776;-60
2022/04/04 07:03:05;;;;;;;6.90;4.80;;;;;;;6.99;54.10;100785.54;117159;1185;21839;-59
2022/04/04 07:05:37;;;;;;;6.50;4.70;;;;;;;7.07;53.94;100784.38;117135;1186;23499;-48
2022/04/04 07:08:06;;;;;;;7.00;4.90;;;;;;;7.19;53.94;100792.84;117162;1186;22679;-49
2022/04/04 07:10:36;;;;;;;7.30;4.70;;;;;;;7.29;53.92;100794.84;117316;1186;21867;-49
2022/04/04 07:13:06;;;;;;;;;;;;;;;7.34;53.81;100803.63;117167;1186;21835;-59
2022/04/04 07:15:35;;;;;;;7.20;4.50;;;;;;;7.38;53.77;100799.46;117219;1186;21872;-49
2022/04/04 07:18:04;;;;;;;7.00;4.00;;;;;;;7.56;53.88;100806.56;117165;1186;22927;-59
2022/04/04 07:20:33;;;;;;;6.90;4.40;;;;;;;7.77;53.92;100807.77;117123;1186;23554;-59
2022/04/04 07:23:02;;;;;;;6.10;4.10;;;;;;;7.91;53.58;100812.39;117240;1185;23557;-48
2022/04/04 07:25:32;;;;;;;6.00;4.10;;;;;;;7.94;53.57;100816.77;117199;1186;21848;-50
2022/04/04 07:28:00;;;;;;;6.70;4.00;;;;;;;7.99;53.54;100825.00;117227;1189;22943;-49
2022/04/04 07:30:29;;;;;;;5.30;3.60;;;;;;;8.04;53.41;100827.31;117369;1186;23448;-49
2022/04/04 07:32:57;;;;;;;5.60;3.60;;;;;;;8.13;53.25;100829.29;117451;1186;21849;-59
2022/04/04 07:35:27;;;;;;;5.40;3.70;;;;;;;8.18;53.29;100827.55;117356;1184;24173;-49
2022/04/04 07:37:56;;;;;;;6.40;4.10;;;;;;;8.23;53.26;100831.77;117231;1185;24276;-49
2022/04/04 07:40:24;;;;;;;6.20;3.50;;;;;;;8.22;53.03;100834.92;117258;1180;21958;-49
2022/04/04 07:42:52;;;;;;;5.70;3.90;;;;;;;8.23;52.92;100834.56;117247;1185;23553;-59
2022/04/04 07:45:21;;;;;;;6.30;3.90;;;;;;;8.33;53.27;100839.35;117250;1185;23556;-49
2022/04/04 07:47:51;;;;;;;5.40;3.90;;;;;;;8.40;53.08;100835.33;117286;1186;21926;-60
2022/04/04 07:50:20;;;;;;;6.20;3.90;;;;;;;8.43;52.98;100842.86;117479;1185;21853;-50
2022/04/04 07:52:50;;;;;;;5.90;3.70;;;;;;;8.42;52.86;100843.91;117223;1186;24236;-49
2022/04/04 07:55:19;;;;;;;7.20;3.90;;;;;;;8.40;52.84;100851.95;117228;1181;23512;-49
2022/04/04 07:58:07;;;;;;;5.60;4.00;;;;;;;8.46;53.02;100857.91;117124;1184;23647;-49
2022/04/04 08:00:36;;;;;;;6.70;4.20;;;;;;;8.45;52.82;100855.83;117181;1181;21871;-49
2022/04/04 08:03:05;;;;;;;7.80;4.30;;;;;;;8.53;53.04;100860.61;117207;1181;21854;-49
2022/04/04 08:05:54;;;;;;;6.70;4.10;;;;;;;8.70;53.22;100858.56;117091;1181;24172;-59
2022/04/04 08:08:23;;;;;;;6.00;4.10;;;;;;;8.92;53.06;100857.39;117107;1181;23554;-59
2022/04/04 08:10:52;;;;;;;6.30;4.80;;;;;;;9.11;53.08;100859.52;117456;1181;25448;-49
2022/04/04 08:13:22;;;;;;;7.40;4.80;;;;;;;9.22;52.97;100863.06;117200;1181;21855;-49
2022/04/04 08:15:52;;;;;;;6.00;4.20;;;;;;;9.26;52.76;100860.96;117333;1185;21850;-49
2022/04/04 08:18:21;;;;;;;7.90;4.40;;;;;;;9.28;52.83;100855.34;117139;1181;21865;-59
2022/04/04 08:20:51;;;;;;;7.40;4.80;;;;;;;9.32;52.78;100860.44;117098;1181;23488;-59
2022/04/04 08:23:32;;;;;;;6.50;4.40;;;;;;;9.12;52.21;100859.70;117147;1181;23477;-59
2022/04/04 08:26:04;;;;;;;5.50;3.90;;;;;;;8.94;52.30;100856.52;117214;1185;21849;-59
2022/04/04 08:28:32;;;;;;;5.90;4.30;;;;;;;8.81;52.15;100853.35;117310;1185;23020;-59
2022/04/04 08:31:01;;;;;;;7.10;4.70;;;;;;;8.62;51.93;100853.30;117357;1185;23554;-60
2022/04/04 08:33:30;;;;;;;8.50;4.70;;;;;;;8.48;51.90;100851.48;117209;1185;21993;-50
2022/04/04 08:36:00;;;;;;;6.60;5.00;;;;;;;8.46;52.18;100853.73;117265;1186;21843;-60
2022/04/04 08:38:29;;;;;;;7.10;4.70;;;;;;;8.57;52.52;100846.11;117318;1186;24013;-60
2022/04/04 08:41:05;;;;;;;6.70;4.60;;;;;;;8.73;52.31;100846.15;117254;1186;21852;-49
2022/04/04 08:43:36;;;;;;;5.90;4.10;;;;;;;8.70;52.07;100835.29;117258;1186;21858;-60
2022/04/04 08:46:06;;;;;;;6.00;4.40;;;;;;;8.66;52.11;100841.59;117305;1186;21858;-59
2022/04/04 08:48:45;;;;;;;7.70;5.00;;;;;;;8.52;51.72;100845.38;117280;1186;23553;-50
2022/04/04 08:51:14;;;;;;;5.90;4.20;;;;;;;8.48;51.78;100843.77;117379;1185;22944;-49
2022/04/04 08:53:43;;;;;;;5.70;4.60;;;;;;;8.65;52.09;100842.63;117083;1187;21892;-59
2022/04/04 08:56:11;;;;;;;7.10;4.70;;;;;;;8.68;52.03;100847.36;117200;1185;24168;-51
2022/04/04 08:58:47;;;;;;;6.30;4.30;;;;;;;8.67;51.92;100844.20;117010;1186;23583;-49
2022/04/04 09:01:16;;;;;;;6.10;4.40;;;;;;;8.68;51.79;100847.02;117145;1186;21892;-49
2022/04/04 09:03:45;;;;;;;6.10;4.00;;;;;;;8.62;51.60;100847.52;117185;1182;21851;-49
2022/04/04 09:06:13;;;;;;;5.80;4.20;;;;;;;8.59;51.60;100844.73;119285;1185;21757;-59
2022/04/04 09:08:47;;;;;;;8.30;4.70;;;;;;;8.71;51.95;100842.11;119301;1186;21765;-50
2022/04/04 09:11:16;;;;;;;7.20;4.00;;;;;;;8.90;51.77;100837.96;119331;1185;21832;-50
2022/04/04 09:13:44;;;;;;;7.80;5.10;;;;;;;8.97;51.70;100841.66;119343;1185;21777;-60
2022/04/04 09:16:22;;;;;;;6.00;4.20;;;;;;;8.87;51.32;100840.58;119280;1182;21789;-52
2022/04/04 09:18:50;;;;;;;7.70;5.20;;;;;;;8.88;51.42;100841.13;118888;1181;21865;-60
2022/04/04 09:21:19;;;;;;;6.90;4.60;;;;;;;8.93;51.44;100837.80;119312;1181;22302;-49
2022/04/04 09:23:50;;;;;;;6.10;4.70;;;;;;;8.97;51.39;100836.23;117365;1185;21874;-49
2022/04/04 09:26:32;;;;;;;6.20;4.60;;;;;;;9.10;51.68;100830.65;117810;1186;23458;-49
2022/04/04 09:29:06;;;;;;;6.00;3.90;;;;;;;9.27;51.60;100832.58;119301;1185;22134;-52
2022/04/04 09:31:35;;;;;;;5.90;3.80;;;;;;;9.34;51.55;100829.25;119331;1185;22153;-59
2022/04/04 09:34:04;;;;;;;5.90;3.80;;;;;;;9.39;51.43;100829.42;119373;1184;21760;-51
2022/04/04 09:36:33;;;;;;;5.80;3.90;;;;;;;9.42;51.18;100832.24;119329;1185;22172;-60
2022/04/04 09:39:09;;;;;;;6.50;4.50;;;;;;;9.41;51.02;100829.09;118169;1182;23176;-49
2022/04/04 09:41:42;;;;;;;;;;;;;;;9.32;50.90;100829.45;119319;1185;21796;-61
2022/04/04 09:44:11;;;;;;;6.10;3.90;;;;;;;9.26;50.95;100825.94;119300;1185;21810;-59
2022/04/04 09:46:43;;;;;;;6.40;4.00;;;;;;;9.31;51.07;100826.27;119311;1184;21784;-50
2022/04/04 09:49:21;;;;;;;8.60;5.00;;;;;;;9.35;51.33;100824.00;119147;1185;21746;-59
2022/04/04 09:51:54;;;;;;;7.00;4.20;;;;;;;9.55;51.58;100821.54;119335;1185;22309;-60
2022/04/04 09:54:24;;;;;;;5.90;4.10;;;;;;;9.77;51.66;100821.00;119349;1185;21764;-51
2022/04/04 09:57:08;;;;;;;;;;;;;;;9.90;51.36;100819.04;119229;1182;21780;-59
2022/04/04 09:59:39;;;;;;;6.90;4.60;;;;;;;9.82;51.05;100816.25;119337;1185;21777;-59
2022/04/04 10:02:09;;;;;;;5.80;3.80;;;;;;;9.68;50.88;100820.48;119328;1182;21773;-51
2022/04/04 10:04:45;;;;;;;7.10;3.50;;;;;;;9.76;50.96;100817.66;119304;1185;21787;-59
2022/04/04 10:07:16;;;;;;;6.20;3.90;;;;;;;9.99;51.04;100822.52;119142;1185;21786;-60
2022/04/04 10:09:46;;;;;;;7.20;3.90;;;;;;;10.09;50.94;100820.90;119294;1185;21767;-59
2022/04/04 10:12:36;;;;;;;6.80;4.40;;;;;;;10.15;50.93;100823.70;119097;1186;21696;-60
2022/04/04 10:15:07;;;;;;;6.30;3.50;;;;;;;10.20;50.82;100826.13;119269;1181;21655;-50
2022/04/04 10:17:39;;;;;;;6.50;4.00;;;;;;;10.25;50.78;100824.52;119330;1185;21832;-60
2022/04/04 10:20:09;;;;;;;7.50;4.60;;;;;;;10.39;50.83;100815.54;119174;1185;21791;-49
2022/04/04 10:22:38;;;;;;;7.40;4.40;;;;;;;10.51;51.13;100817.08;119191;1185;21821;-60
2022/04/04 10:25:07;;;;;;;5.60;3.80;;;;;;;10.79;51.06;100814.30;119302;1185;21846;-59
2022/04/04 10:27:37;;;;;;;6.40;4.10;;;;;;;11.04;50.59;100805.00;119160;1186;22110;-51
2022/04/04 10:30:06;;;;;;;6.00;3.70;;;;;;;11.15;50.78;100802.45;119213;1186;21760;-60
2022/04/04 10:32:36;;;;;;;5.90;4.10;;;;;;;11.28;50.58;100807.79;119166;1185;21823;-60
2022/04/04 10:35:10;;;;;;;6.30;4.30;;;;;;;11.32;50.51;100808.11;119303;1185;21775;-51
2022/04/04 10:37:44;;;;;;;5.50;3.70;;;;;;;11.35;50.52;100806.85;119286;1186;21823;-60
2022/04/04 10:40:25;;;;;;;7.10;4.20;;;;;;;11.39;50.36;100809.81;119302;1185;22246;-59
2022/04/04 10:43:10;;;;;;;5.70;3.50;;;;;;;11.41;50.41;100805.94;119269;1185;21767;-51
2022/04/04 10:46:00;;;;;;;6.70;4.10;;;;;;;11.53;50.49;100799.66;119290;1185;22237;-50
2022/04/04 10:48:39;;;;;;;5.60;4.20;;;;;;;11.56;50.36;100796.48;118204;1185;22620;-49
2022/04/04 10:51:15;;;;;;;5.10;3.40;;;;;;;11.76;50.58;100792.59;119282;1182;22282;-51
2022/04/04 10:54:05;;;;;;;6.00;3.50;;;;;;;12.04;50.65;100789.65;119213;1186;21774;-59
2022/04/04 10:56:34;;;;;;;5.40;3.50;;;;;;;12.40;50.28;100783.58;119342;1185;21756;-59
2022/04/04 10:59:16;;;;;;;5.70;3.50;;;;;;;12.55;49.84;100779.88;119345;1185;21795;-52
2022/04/04 11:01:50;;;;;;;6.10;3.50;;;;;;;12.56;49.63;100781.08;119322;1185;22155;-50
2022/04/04 11:04:36;;;;;;;5.50;3.80;;;;;;;12.46;49.77;100792.30;119311;1186;21828;-52
2022/04/04 11:10:06;;;;;;;5.80;3.60;;;;;;;12.55;49.70;100778.64;119338;1185;22238;-52
2022/04/04 11:12:56;;;;;;;6.10;3.30;;;;;;;12.71;49.82;100776.65;119190;1185;21784;-59
2022/04/04 11:15:45;;;;;;;5.50;3.60;;;;;;;12.83;49.66;100775.74;119384;1185;21788;-60
2022/04/04 11:18:16;;;;;;;5.50;3.20;;;;;;;12.91;49.41;100770.87;117594;1185;22928;-49
2022/04/04 11:21:07;;;;;;;5.30;3.50;;;;;;;12.66;48.86;100770.89;119361;1184;21786;-51
2022/04/04 11:23:39;;;;;;;4.60;3.00;;;;;;;12.37;48.91;100771.83;119273;1185;21776;-50
2022/04/04 11:26:11;;;;;;;5.70;3.80;;;;;;;12.19;48.91;100767.48;119185;1185;21768;-59
2022/04/04 11:28:42;;;;;;;5.40;3.40;;;;;;;12.28;49.18;100762.80;119170;1185;21776;-59
2022/04/04 11:31:11;;;;;;;6.10;3.50;;;;;;;12.56;49.27;100766.30;119195;1186;22357;-51
2022/04/04 11:33:51;;;;;;;5.10;3.20;;;;;;;12.69;49.05;100760.83;119324;1185;21756;-50
2022/04/04 11:36:28;;;;;;;6.60;3.30;;;;;;;12.87;48.97;100751.77;119333;1186;21815;-57
2022/04/04 11:39:03;;;;;;;5.20;3.00;;;;;;;13.03;48.95;100752.04;119332;1185;21745;-59
2022/04/04 11:41:36;;;;;;;6.30;3.80;;;;;;;13.12;48.96;100749.41;119238;1185;21777;-50
2022/04/04 11:44:05;;;;;;;6.70;3.50;;;;;;;13.05;48.69;100741.59;119318;1185;21803;-52
2022/04/04 11:46:34;;;;;;;5.60;3.60;;;;;;;13.11;48.90;100743.78;119233;1186;21804;-60